createdAt,value
2023-05-13T00:00:25.165Z,16.40
2023-05-13T00:02:52.565Z,16.40
2023-05-13T00:05:21.377Z,16.40
2023-05-13T00:07:48.472Z,16.50
2023-05-13T00:10:17.323Z,16.50
2023-05-13T00:12:44.475Z,16.40
2023-05-13T00:15:11.602Z,16.30
2023-05-13T00:17:38.517Z,16.30
2023-05-13T00:20:06.761Z,16.30
2023-05-13T00:22:33.640Z,16.30
2023-05-13T00:25:00.962Z,16.40
2023-05-13T00:27:28.029Z,16.20
2023-05-13T00:29:55.030Z,16.20
2023-05-13T00:32:21.963Z,16.20
2023-05-13T00:34:48.905Z,16.00
2023-05-13T00:37:15.918Z,15.90
2023-05-13T00:39:42.960Z,15.90
2023-05-13T00:42:12.503Z,15.90
2023-05-13T00:44:39.825Z,15.70
2023-05-13T00:47:07.281Z,15.60
2023-05-13T00:49:34.504Z,15.70
2023-05-13T00:52:02.544Z,15.60
2023-05-13T00:54:30.858Z,15.60
2023-05-13T00:56:59.621Z,15.50
2023-05-13T00:59:28.651Z,15.60
2023-05-13T01:02:04.298Z,15.70
2023-05-13T01:04:51.515Z,15.60
2023-05-13T01:07:18.549Z,15.60
2023-05-13T01:09:57.245Z,15.50
2023-05-13T01:12:34.947Z,15.50
2023-05-13T01:15:10.359Z,15.40
2023-05-13T01:18:01.355Z,15.40
2023-05-13T01:20:30.519Z,15.40
2023-05-13T01:23:00.725Z,15.40
2023-05-13T01:25:27.783Z,15.60
2023-05-13T01:27:56.071Z,15.40
2023-05-13T01:30:24.037Z,15.40
2023-05-13T01:32:52.823Z,15.40
2023-05-13T01:35:21.612Z,15.40
2023-05-13T01:37:50.259Z,15.30
2023-05-13T01:40:28.025Z,15.50
2023-05-13T01:42:59.058Z,15.50
2023-05-13T01:45:29.521Z,15.40
2023-05-13T01:47:56.471Z,15.20
2023-05-13T01:50:23.683Z,15.30
2023-05-13T01:52:50.813Z,15.20
2023-05-13T01:55:20.267Z,15.40
2023-05-13T01:57:47.247Z,15.50
2023-05-13T02:00:14.785Z,15.40
2023-05-13T02:02:41.933Z,15.30
2023-05-13T02:05:09.271Z,15.40
2023-05-13T02:07:36.983Z,15.30
2023-05-13T02:10:04.274Z,15.30
2023-05-13T02:12:31.357Z,15.40
2023-05-13T02:14:58.345Z,15.20
2023-05-13T02:17:25.478Z,15.20
2023-05-13T02:19:52.473Z,15.20
2023-05-13T02:22:19.469Z,15.30
2023-05-13T02:24:46.294Z,15.20
2023-05-13T02:27:16.899Z,15.10
2023-05-13T02:29:43.875Z,15.20
2023-05-13T02:32:10.865Z,15.10
2023-05-13T02:34:37.887Z,15.10
2023-05-13T02:37:05.567Z,15.10
2023-05-13T02:39:32.452Z,15.10
2023-05-13T02:41:59.867Z,14.90
2023-05-13T02:44:26.801Z,14.90
2023-05-13T02:46:53.612Z,14.90
2023-05-13T02:49:20.452Z,14.90
2023-05-13T02:51:47.392Z,14.90
2023-05-13T02:54:14.201Z,15.00
2023-05-13T02:56:41.047Z,14.90
2023-05-13T02:59:08.845Z,14.90
2023-05-13T03:01:35.842Z,14.90
2023-05-13T03:04:02.681Z,14.90
2023-05-13T03:06:29.653Z,14.80
2023-05-13T03:08:56.535Z,14.90
2023-05-13T03:11:23.448Z,14.90
2023-05-13T03:13:50.570Z,14.80
2023-05-13T03:16:17.524Z,14.80
2023-05-13T03:18:44.586Z,14.70
2023-05-13T03:21:11.583Z,14.80
2023-05-13T03:23:38.560Z,14.80
2023-05-13T03:26:05.502Z,14.80
2023-05-13T03:28:32.370Z,14.70
2023-05-13T03:30:59.265Z,14.70
2023-05-13T03:33:26.470Z,14.80
2023-05-13T03:35:53.561Z,14.70
2023-05-13T03:38:20.615Z,14.70
2023-05-13T03:40:47.501Z,14.50
2023-05-13T03:43:14.439Z,14.60
2023-05-13T03:45:41.261Z,14.60
2023-05-13T03:48:08.154Z,14.70
2023-05-13T03:50:35.015Z,14.60
2023-05-13T03:53:02.272Z,14.70
2023-05-13T03:55:29.141Z,14.70
2023-05-13T03:57:56.220Z,14.70
2023-05-13T04:00:23.424Z,14.80
2023-05-13T04:02:50.746Z,14.90
2023-05-13T04:05:18.058Z,14.80
2023-05-13T04:07:45.305Z,14.80
2023-05-13T04:10:15.448Z,14.70
2023-05-13T04:12:43.044Z,14.60
2023-05-13T04:15:10.615Z,14.60
2023-05-13T04:17:37.752Z,14.60
2023-05-13T04:20:05.874Z,14.60
2023-05-13T04:22:32.688Z,14.60
2023-05-13T04:24:59.569Z,14.60
2023-05-13T04:27:26.630Z,14.50
2023-05-13T04:29:53.538Z,14.70
2023-05-13T04:32:22.191Z,14.70
2023-05-13T04:34:49.639Z,14.70
2023-05-13T04:37:16.723Z,14.70
2023-05-13T04:39:46.347Z,14.80
2023-05-13T04:42:16.725Z,14.90
2023-05-13T04:44:44.001Z,14.90
2023-05-13T04:47:11.308Z,14.80
2023-05-13T04:49:38.175Z,14.80
2023-05-13T04:52:06.561Z,14.90
2023-05-13T04:54:35.873Z,14.90
2023-05-13T04:57:03.587Z,15.10
2023-05-13T04:59:31.136Z,15.10
2023-05-13T05:01:58.393Z,15.10
2023-05-13T05:04:26.090Z,15.20
2023-05-13T05:06:53.149Z,15.30
2023-05-13T05:09:20.125Z,15.10
2023-05-13T05:11:47.068Z,15.10
2023-05-13T05:14:14.285Z,15.10
2023-05-13T05:16:41.290Z,15.20
2023-05-13T05:19:08.395Z,15.30
2023-05-13T05:21:35.364Z,15.40
2023-05-13T05:24:02.392Z,15.40
2023-05-13T05:26:29.243Z,15.50
2023-05-13T05:28:56.623Z,15.50
2023-05-13T05:31:23.743Z,15.40
2023-05-13T05:33:51.247Z,15.40
2023-05-13T05:36:18.289Z,15.40
2023-05-13T05:38:45.441Z,15.40
2023-05-13T05:41:13.105Z,15.40
2023-05-13T05:43:39.902Z,15.40
2023-05-13T05:46:06.866Z,15.50
2023-05-13T05:48:34.870Z,15.70
2023-05-13T05:51:02.308Z,15.60
2023-05-13T05:53:29.360Z,15.70
2023-05-13T05:55:56.346Z,15.80
2023-05-13T05:58:23.483Z,15.90
2023-05-13T06:00:50.759Z,16.00
2023-05-13T06:03:17.873Z,15.90
2023-05-13T06:05:45.085Z,15.90
2023-05-13T06:08:14.835Z,16.10
2023-05-13T06:10:42.033Z,16.10
2023-05-13T06:13:08.880Z,16.30
2023-05-13T06:15:36.942Z,16.40
2023-05-13T06:18:05.658Z,16.40
2023-05-13T06:20:33.015Z,16.50
2023-05-13T06:22:59.934Z,16.50
2023-05-13T06:25:27.061Z,16.40
2023-05-13T06:27:53.939Z,16.30
2023-05-13T06:30:21.787Z,16.50
2023-05-13T06:33:00.141Z,16.70
2023-05-13T06:35:28.796Z,16.70
2023-05-13T06:37:57.495Z,16.80
2023-05-13T06:40:24.722Z,16.80
2023-05-13T06:42:51.931Z,16.70
2023-05-13T06:45:23.244Z,16.60
2023-05-13T06:47:53.790Z,16.70
2023-05-13T06:50:21.046Z,16.90
2023-05-13T06:52:48.198Z,17.00
2023-05-13T06:55:16.752Z,17.20
2023-05-13T06:57:46.922Z,17.20
2023-05-13T07:00:19.478Z,17.20
2023-05-13T07:02:46.710Z,17.30
2023-05-13T07:05:14.969Z,17.40
2023-05-13T07:07:43.485Z,17.50
2023-05-13T07:10:11.083Z,17.70
2023-05-13T07:12:38.262Z,17.60
2023-05-13T07:15:06.216Z,17.60
2023-05-13T07:17:33.112Z,17.70
2023-05-13T07:19:59.979Z,17.80
2023-05-13T07:22:27.957Z,17.70
2023-05-13T07:24:55.256Z,17.60
2023-05-13T07:27:22.250Z,17.70
2023-05-13T07:29:50.100Z,17.80
2023-05-13T07:32:17.104Z,17.90
2023-05-13T07:34:44.902Z,18.10
2023-05-13T07:37:12.853Z,18.20
2023-05-13T07:39:39.870Z,18.20
2023-05-13T07:42:07.329Z,18.10
2023-05-13T07:44:34.392Z,18.20
2023-05-13T07:47:01.372Z,18.30
2023-05-13T07:49:28.285Z,18.40
2023-05-13T07:51:55.768Z,18.30
2023-05-13T07:54:23.142Z,18.30
2023-05-13T07:56:50.029Z,18.40
2023-05-13T07:59:16.981Z,18.40
2023-05-13T08:01:44.091Z,18.50
2023-05-13T08:04:11.935Z,18.70
2023-05-13T08:06:41.751Z,18.90
2023-05-13T08:09:09.635Z,19.10
2023-05-13T08:11:36.699Z,19.30
2023-05-13T08:14:05.025Z,19.50
2023-05-13T08:16:37.486Z,19.70
2023-05-13T08:19:05.079Z,19.90
2023-05-13T08:21:32.701Z,19.90
2023-05-13T08:23:59.652Z,20.10
2023-05-13T08:26:26.864Z,20.10
2023-05-13T08:28:55.194Z,20.40
2023-05-13T08:31:24.336Z,20.40
2023-05-13T08:33:53.496Z,20.50
2023-05-13T08:36:26.126Z,20.60
2023-05-13T08:38:53.476Z,20.70
2023-05-13T08:41:22.008Z,21.00
2023-05-13T08:43:52.127Z,21.10
2023-05-13T08:46:19.620Z,21.20
2023-05-13T08:48:47.307Z,21.30
2023-05-13T08:51:14.734Z,21.30
2023-05-13T08:53:42.998Z,21.30
2023-05-13T08:56:10.865Z,21.60
2023-05-13T08:58:37.878Z,21.70
2023-05-13T09:01:07.324Z,22.00
2023-05-13T09:03:37.243Z,22.10
2023-05-13T09:06:05.113Z,22.10
2023-05-13T09:08:32.822Z,22.40
2023-05-13T09:11:00.981Z,22.30
2023-05-13T09:13:28.022Z,22.50
2023-05-13T09:15:54.960Z,22.60
2023-05-13T09:18:22.034Z,22.70
2023-05-13T09:20:49.864Z,22.80
2023-05-13T09:23:17.993Z,23.10
2023-05-13T09:25:45.054Z,23.00
2023-05-13T09:28:15.727Z,22.90
2023-05-13T09:30:45.574Z,23.20
2023-05-13T09:33:15.236Z,23.40
2023-05-13T09:35:53.205Z,23.40
2023-05-13T09:38:21.598Z,23.40
2023-05-13T09:40:57.254Z,23.70
2023-05-13T09:43:26.991Z,23.70
2023-05-13T09:46:06.510Z,23.70
2023-05-13T09:48:34.336Z,24.00
2023-05-13T09:51:01.739Z,24.00
2023-05-13T09:53:30.170Z,24.00
2023-05-13T09:55:58.744Z,24.20
2023-05-13T09:58:28.509Z,24.20
2023-05-13T10:00:56.600Z,24.30
2023-05-13T10:03:24.068Z,24.10
2023-05-13T10:05:52.609Z,24.30
2023-05-13T10:08:19.888Z,24.30
2023-05-13T10:10:49.616Z,24.30
2023-05-13T10:13:18.991Z,24.50
2023-05-13T10:15:51.698Z,24.40
2023-05-13T10:18:20.179Z,24.40
2023-05-13T10:20:53.253Z,24.60
2023-05-13T10:23:22.762Z,25.00
2023-05-13T10:25:51.317Z,25.00
2023-05-13T10:28:19.686Z,25.10
2023-05-13T10:30:47.803Z,25.10
2023-05-13T10:33:16.687Z,25.10
2023-05-13T10:36:04.146Z,25.30
2023-05-13T10:38:49.580Z,25.70
2023-05-13T10:41:35.213Z,25.60
2023-05-13T10:44:03.683Z,25.50
2023-05-13T10:46:30.757Z,25.50
2023-05-13T10:49:00.852Z,25.80
2023-05-13T10:51:28.043Z,25.70
2023-05-13T10:53:58.005Z,26.00
2023-05-13T10:56:29.414Z,26.00
2023-05-13T10:59:04.521Z,25.80
2023-05-13T11:01:43.573Z,25.70
2023-05-13T11:04:16.877Z,26.00
2023-05-13T11:06:48.416Z,26.00
2023-05-13T11:09:30.416Z,25.80
2023-05-13T11:11:59.310Z,25.50
2023-05-13T11:14:28.100Z,25.60
2023-05-13T11:17:12.449Z,25.60
2023-05-13T11:19:47.694Z,25.80
2023-05-13T11:22:19.358Z,25.90
2023-05-13T11:25:08.641Z,25.90
2023-05-13T11:27:42.883Z,25.30
2023-05-13T11:30:30.104Z,25.10
2023-05-13T11:32:59.081Z,25.10
2023-05-13T11:35:31.180Z,25.10
2023-05-13T11:38:00.849Z,25.40
2023-05-13T11:40:33.739Z,25.60
2023-05-13T11:43:01.898Z,25.50
2023-05-13T11:45:30.356Z,25.00
2023-05-13T11:47:58.192Z,25.10
2023-05-13T11:50:30.198Z,25.10
2023-05-13T11:53:03.248Z,25.60
2023-05-13T11:55:37.055Z,25.80
2023-05-13T11:58:04.676Z,25.50
2023-05-13T12:00:33.841Z,25.50
2023-05-13T12:03:03.333Z,25.50
2023-05-13T12:05:31.545Z,25.60
2023-05-13T12:07:59.064Z,25.70
2023-05-13T12:10:27.218Z,25.90
2023-05-13T12:12:54.786Z,26.30
2023-05-13T12:15:23.189Z,26.50
2023-05-13T12:17:50.946Z,25.90
2023-05-13T12:23:12.022Z,25.00
2023-05-13T12:25:41.963Z,25.20
2023-05-13T12:28:17.618Z,25.20
2023-05-13T12:30:52.796Z,25.40
2023-05-13T12:33:22.650Z,25.70
2023-05-13T12:35:54.662Z,25.90
2023-05-13T12:38:25.347Z,25.50
2023-05-13T12:40:53.259Z,25.30
2023-05-13T12:43:20.429Z,25.20
2023-05-13T12:45:53.559Z,25.00
2023-05-13T12:48:25.046Z,25.10
2023-05-13T12:50:52.341Z,25.00
2023-05-13T12:53:19.315Z,25.30
2023-05-13T12:55:46.138Z,25.10
2023-05-13T12:58:13.620Z,25.40
2023-05-13T13:00:40.645Z,25.40
2023-05-13T13:03:08.396Z,25.50
2023-05-13T13:05:35.758Z,25.70
2023-05-13T13:08:05.395Z,25.60
2023-05-13T13:10:32.518Z,25.90
2023-05-13T13:12:59.632Z,26.00
2023-05-13T13:15:26.719Z,26.40
2023-05-13T13:17:53.800Z,26.70
2023-05-13T13:20:21.078Z,26.70
2023-05-13T13:22:47.984Z,26.70
2023-05-13T13:25:15.002Z,27.00
2023-05-13T13:27:42.122Z,26.90
2023-05-13T13:30:09.626Z,27.20
2023-05-13T13:32:36.548Z,27.00
2023-05-13T13:35:05.715Z,26.90
2023-05-13T13:37:33.007Z,26.60
2023-05-13T13:40:00.227Z,27.00
2023-05-13T13:42:40.289Z,27.00
2023-05-13T13:45:11.622Z,27.30
2023-05-13T13:47:38.763Z,27.30
2023-05-13T13:50:06.756Z,26.60
2023-05-13T13:52:33.679Z,26.60
2023-05-13T13:55:00.732Z,26.40
2023-05-13T13:57:27.820Z,26.40
2023-05-13T13:59:54.823Z,26.40
2023-05-13T14:02:22.024Z,26.30
2023-05-13T14:04:49.119Z,26.70
2023-05-13T14:07:16.201Z,26.90
2023-05-13T14:09:43.086Z,27.20
2023-05-13T14:12:10.183Z,27.20
2023-05-13T14:14:37.310Z,27.00
2023-05-13T14:17:04.209Z,26.70
2023-05-13T14:19:31.007Z,26.50
2023-05-13T14:21:58.733Z,26.30
2023-05-13T14:24:27.143Z,26.40
2023-05-13T14:26:54.307Z,26.70
2023-05-13T14:29:22.866Z,26.40
2023-05-13T14:31:50.380Z,25.80
2023-05-13T14:34:17.402Z,25.50
2023-05-13T14:36:44.372Z,25.50
2023-05-13T14:39:12.170Z,25.80
2023-05-13T14:41:40.936Z,25.60
2023-05-13T14:44:07.794Z,25.60
2023-05-13T14:46:38.127Z,25.60
2023-05-13T14:49:05.032Z,25.80
2023-05-13T14:51:31.950Z,26.00
2023-05-13T14:53:58.873Z,25.70
2023-05-13T14:56:25.861Z,25.20
2023-05-13T14:58:54.148Z,25.00
2023-05-13T15:01:21.147Z,25.30
2023-05-13T15:03:49.445Z,25.10
2023-05-13T15:06:16.354Z,25.40
2023-05-13T15:08:43.251Z,25.80
2023-05-13T15:11:10.403Z,25.70
2023-05-13T15:13:40.135Z,25.60
2023-05-13T15:16:07.703Z,25.40
2023-05-13T15:18:34.876Z,25.20
2023-05-13T15:21:01.971Z,25.20
2023-05-13T15:23:28.930Z,25.20
2023-05-13T15:25:55.940Z,25.30
2023-05-13T15:28:22.991Z,25.10
2023-05-13T15:30:49.876Z,25.10
2023-05-13T15:33:16.786Z,24.80
2023-05-13T15:35:43.874Z,25.10
2023-05-13T15:38:10.960Z,24.80
2023-05-13T15:40:41.200Z,25.10
2023-05-13T15:43:08.498Z,25.10
2023-05-13T15:45:35.836Z,25.00
2023-05-13T15:48:03.009Z,25.00
2023-05-13T15:50:30.876Z,24.90
2023-05-13T15:52:57.777Z,24.70
2023-05-13T15:55:24.901Z,24.70
2023-05-13T15:57:51.930Z,24.60
2023-05-13T16:00:19.217Z,24.60
2023-05-13T16:02:46.241Z,24.20
2023-05-13T16:05:15.389Z,24.00
2023-05-13T16:07:44.403Z,24.30
2023-05-13T16:10:11.676Z,24.00
2023-05-13T16:12:39.077Z,23.80
2023-05-13T16:15:06.849Z,23.80
2023-05-13T16:17:34.660Z,24.00
2023-05-13T16:20:01.829Z,23.60
2023-05-13T16:22:32.751Z,23.40
2023-05-13T16:25:05.405Z,23.30
2023-05-13T16:27:32.992Z,22.90
2023-05-13T16:30:02.240Z,22.50
2023-05-13T16:32:29.777Z,22.40
2023-05-13T16:34:57.116Z,22.10
2023-05-13T16:37:23.981Z,21.90
2023-05-13T16:39:50.888Z,21.90
2023-05-13T16:42:19.524Z,21.70
2023-05-13T16:44:49.759Z,21.80
2023-05-13T16:47:16.631Z,22.00
2023-05-13T16:49:43.761Z,22.10
2023-05-13T16:52:10.613Z,22.20
2023-05-13T16:54:38.281Z,22.20
2023-05-13T16:57:06.010Z,22.10
2023-05-13T16:59:33.547Z,21.60
2023-05-13T17:02:00.830Z,21.80
2023-05-13T17:04:28.522Z,21.70
2023-05-13T17:06:57.542Z,21.40
2023-05-13T17:09:26.199Z,21.20
2023-05-13T17:11:54.465Z,21.10
2023-05-13T17:14:22.079Z,20.80
2023-05-13T17:16:49.524Z,20.70
2023-05-13T17:19:16.679Z,20.80
2023-05-13T17:21:43.698Z,20.50
2023-05-13T17:24:15.356Z,20.30
2023-05-13T17:26:42.250Z,20.00
2023-05-13T17:29:09.224Z,19.80
2023-05-13T17:31:36.087Z,19.60
2023-05-13T17:34:02.947Z,19.60
2023-05-13T17:36:29.908Z,19.50
2023-05-13T17:38:56.975Z,19.40
2023-05-13T17:41:23.907Z,19.30
2023-05-13T17:43:50.912Z,19.30
2023-05-13T17:46:17.876Z,19.20
2023-05-13T17:48:44.897Z,19.00
2023-05-13T17:51:14.681Z,19.10
2023-05-13T17:53:41.721Z,19.10
2023-05-13T17:56:10.426Z,18.90
2023-05-13T17:58:37.502Z,18.80
2023-05-13T18:01:04.646Z,18.80
2023-05-13T18:03:32.605Z,18.60
2023-05-13T18:05:59.874Z,18.50
2023-05-13T18:08:26.955Z,18.50
2023-05-13T18:10:53.776Z,18.50
2023-05-13T18:13:20.809Z,18.50
2023-05-13T18:15:48.706Z,18.50
2023-05-13T18:18:17.624Z,18.40
2023-05-13T18:20:44.745Z,18.20
2023-05-13T18:23:11.818Z,18.00
2023-05-13T18:25:48.776Z,18.20
2023-05-13T18:28:22.495Z,18.20
2023-05-13T18:30:49.600Z,18.10
2023-05-13T18:33:16.549Z,18.10
2023-05-13T18:35:43.476Z,17.90
2023-05-13T18:38:10.642Z,17.70
2023-05-13T18:40:37.628Z,17.60
2023-05-13T18:43:04.548Z,17.60
2023-05-13T18:45:31.441Z,17.50
2023-05-13T18:47:58.441Z,17.50
2023-05-13T18:50:25.555Z,17.30
2023-05-13T18:52:52.407Z,17.10
2023-05-13T18:55:19.564Z,17.10
2023-05-13T18:57:46.648Z,17.20
2023-05-13T19:00:14.036Z,17.20
2023-05-13T19:02:41.005Z,17.30
2023-05-13T19:05:10.182Z,17.20
2023-05-13T19:07:37.291Z,17.20
2023-05-13T19:10:04.619Z,17.10
2023-05-13T19:12:31.695Z,17.00
2023-05-13T19:14:58.637Z,17.00
2023-05-13T19:17:26.067Z,16.90
2023-05-13T19:19:52.979Z,16.70
2023-05-13T19:22:19.856Z,16.70
2023-05-13T19:24:46.765Z,16.70
2023-05-13T19:27:13.924Z,16.80
2023-05-13T19:29:40.844Z,16.60
2023-05-13T19:32:07.747Z,16.60
2023-05-13T19:34:34.668Z,16.60
2023-05-13T19:37:01.735Z,16.50
2023-05-13T19:39:28.692Z,16.40
2023-05-13T19:41:56.421Z,16.40
2023-05-13T19:44:23.898Z,16.40
2023-05-13T19:46:51.525Z,16.50
2023-05-13T19:49:18.657Z,16.60
2023-05-13T19:51:45.917Z,16.60
2023-05-13T19:54:13.996Z,16.60
2023-05-13T19:56:42.260Z,16.60
2023-05-13T19:59:09.172Z,16.60
2023-05-13T20:01:37.758Z,16.40
2023-05-13T20:04:05.423Z,16.40
2023-05-13T20:06:32.878Z,16.20
2023-05-13T20:09:00.834Z,16.10
2023-05-13T20:11:28.172Z,15.80
2023-05-13T20:13:55.744Z,15.90
2023-05-13T20:16:23.537Z,16.00
2023-05-13T20:18:51.535Z,16.10
2023-05-13T20:21:18.492Z,16.10
2023-05-13T20:23:45.403Z,16.10
2023-05-13T20:26:13.219Z,16.00
2023-05-13T20:28:40.084Z,16.00
2023-05-13T20:31:07.147Z,16.10
2023-05-13T20:33:34.225Z,16.00
2023-05-13T20:36:01.146Z,16.00
2023-05-13T20:38:28.137Z,15.90
2023-05-13T20:40:55.120Z,16.00
2023-05-13T20:43:22.115Z,16.20
2023-05-13T20:45:49.048Z,16.10
2023-05-13T20:48:16.724Z,16.20
2023-05-13T20:50:43.520Z,15.90
2023-05-13T20:53:10.448Z,15.90
2023-05-13T20:55:37.483Z,16.00
2023-05-13T20:58:04.587Z,16.00
2023-05-13T21:00:31.657Z,15.90
2023-05-13T21:03:00.903Z,15.70
2023-05-13T21:05:28.372Z,15.90
2023-05-13T21:07:55.789Z,16.00
2023-05-13T21:10:23.409Z,16.00
2023-05-13T21:12:51.273Z,16.00
2023-05-13T21:15:18.151Z,16.00
2023-05-13T21:17:47.123Z,16.00
2023-05-13T21:20:14.475Z,16.20
2023-05-13T21:22:51.608Z,16.20
2023-05-13T21:25:18.528Z,16.00
2023-05-13T21:27:45.883Z,16.00
2023-05-13T21:30:13.543Z,15.80
2023-05-13T21:32:40.432Z,15.70
2023-05-13T21:35:08.097Z,15.70
2023-05-13T21:37:35.292Z,15.70
2023-05-13T21:40:02.522Z,15.70
2023-05-13T21:42:29.375Z,15.70
2023-05-13T21:44:57.258Z,15.60
2023-05-13T21:47:25.183Z,15.80
2023-05-13T21:49:52.219Z,15.80
2023-05-13T21:52:19.090Z,15.60
2023-05-13T21:54:46.269Z,15.50
2023-05-13T21:57:13.307Z,15.50
2023-05-13T22:02:21.326Z,15.50
2023-05-13T22:04:48.853Z,15.60
2023-05-13T22:07:17.739Z,15.50
2023-05-13T22:09:45.064Z,15.50
2023-05-13T22:12:11.891Z,15.60
2023-05-13T22:14:38.875Z,15.50
2023-05-13T22:17:09.528Z,15.40
2023-05-13T22:19:37.291Z,15.20
2023-05-13T22:22:04.405Z,15.10
2023-05-13T22:24:31.573Z,15.10
2023-05-13T22:26:58.822Z,15.20
2023-05-13T22:29:26.006Z,15.20
2023-05-13T22:31:53.083Z,15.10
2023-05-13T22:34:20.292Z,15.20
2023-05-13T22:36:47.281Z,15.00
2023-05-13T22:39:16.163Z,15.10
2023-05-13T22:41:43.427Z,15.00
2023-05-13T22:44:11.140Z,15.00
2023-05-13T22:46:38.814Z,14.90
2023-05-13T22:49:09.311Z,15.00
2023-05-13T22:51:36.513Z,14.90
2023-05-13T22:54:03.655Z,15.00
2023-05-13T22:56:30.718Z,15.10
2023-05-13T22:58:57.588Z,15.10
2023-05-13T23:01:24.735Z,15.00
2023-05-13T23:03:51.946Z,15.00
2023-05-13T23:06:21.189Z,15.00
2023-05-13T23:08:48.625Z,15.00
2023-05-13T23:11:15.698Z,14.80
2023-05-13T23:13:42.630Z,14.80
2023-05-13T23:16:10.557Z,14.80
2023-05-13T23:18:37.508Z,14.70
2023-05-13T23:21:04.559Z,14.60
2023-05-13T23:23:32.028Z,14.80
2023-05-13T23:25:58.836Z,14.90
2023-05-13T23:28:25.663Z,14.90
2023-05-13T23:30:56.425Z,14.90
2023-05-13T23:33:23.287Z,15.00
2023-05-13T23:35:56.612Z,15.00
2023-05-13T23:38:23.946Z,14.90
2023-05-13T23:40:50.965Z,15.00
2023-05-13T23:43:17.910Z,14.80
2023-05-13T23:45:46.247Z,14.80
2023-05-13T23:48:13.334Z,15.00
2023-05-13T23:50:42.027Z,15.00
2023-05-13T23:53:09.196Z,14.80
2023-05-13T23:55:36.152Z,14.90
2023-05-13T23:58:03.003Z,14.90
